createdAt,value
2023-05-12T00:01:59.537Z,11.70
2023-05-12T00:04:27.234Z,11.71
2023-05-12T00:06:54.836Z,11.70
2023-05-12T00:09:22.256Z,11.71
2023-05-12T00:11:49.765Z,11.72
2023-05-12T00:14:17.326Z,11.70
2023-05-12T00:16:45.085Z,11.69
2023-05-12T00:19:12.788Z,11.69
2023-05-12T00:21:41.631Z,11.69
2023-05-12T00:24:09.286Z,11.68
2023-05-12T00:26:37.051Z,11.66
2023-05-12T00:29:04.590Z,11.66
2023-05-12T00:31:33.300Z,11.65
2023-05-12T00:34:00.936Z,11.62
2023-05-12T00:36:28.459Z,11.56
2023-05-12T00:38:56.323Z,11.51
2023-05-12T00:41:24.441Z,11.47
2023-05-12T00:43:52.494Z,11.44
2023-05-12T00:46:20.104Z,11.40
2023-05-12T00:48:47.925Z,11.37
2023-05-12T00:51:16.138Z,11.35
2023-05-12T00:53:49.963Z,11.32
2023-05-12T00:56:21.970Z,11.18
2023-05-12T00:58:49.475Z,11.23
2023-05-12T01:01:18.200Z,11.24
2023-05-12T01:03:47.737Z,11.23
2023-05-12T01:06:21.036Z,11.21
2023-05-12T01:08:49.075Z,11.19
2023-05-12T01:11:17.742Z,11.17
2023-05-12T01:13:45.386Z,11.14
2023-05-12T01:16:14.041Z,11.12
2023-05-12T01:18:43.418Z,11.10
2023-05-12T01:21:11.217Z,11.06
2023-05-12T01:23:42.263Z,11.05
2023-05-12T01:26:11.171Z,11.03
2023-05-12T01:28:38.810Z,11.02
2023-05-12T01:31:06.820Z,11.02
2023-05-12T01:33:35.779Z,11.02
2023-05-12T01:36:03.412Z,11.03
2023-05-12T01:38:31.097Z,11.03
2023-05-12T01:40:58.729Z,11.03
2023-05-12T01:43:26.441Z,11.03
2023-05-12T01:45:54.849Z,11.02
2023-05-12T01:48:22.434Z,11.01
2023-05-12T01:50:50.373Z,11.01
2023-05-12T01:53:21.450Z,10.99
2023-05-12T01:55:49.115Z,10.96
2023-05-12T01:58:17.329Z,10.94
2023-05-12T02:00:44.995Z,10.93
2023-05-12T02:03:16.677Z,10.91
2023-05-12T02:05:44.212Z,10.90
2023-05-12T02:08:12.112Z,10.89
2023-05-12T02:10:40.405Z,10.88
2023-05-12T02:13:08.788Z,10.87
2023-05-12T02:15:36.571Z,10.89
2023-05-12T02:18:04.591Z,10.90
2023-05-12T02:20:32.906Z,10.91
2023-05-12T02:23:00.997Z,10.92
2023-05-12T02:25:30.801Z,10.91
2023-05-12T02:27:58.346Z,10.91
2023-05-12T02:30:25.958Z,10.92
2023-05-12T02:32:53.754Z,10.93
2023-05-12T02:35:21.568Z,10.94
2023-05-12T02:37:49.579Z,10.96
2023-05-12T02:40:17.278Z,10.97
2023-05-12T02:42:45.650Z,10.97
2023-05-12T02:45:13.396Z,10.96
2023-05-12T02:47:41.518Z,10.97
2023-05-12T02:50:09.694Z,10.99
2023-05-12T02:52:37.965Z,11.01
2023-05-12T02:55:05.752Z,11.03
2023-05-12T02:57:34.332Z,11.03
2023-05-12T03:00:04.786Z,11.06
2023-05-12T03:02:36.300Z,11.08
2023-05-12T03:05:04.992Z,11.10
2023-05-12T03:07:32.965Z,11.12
2023-05-12T03:10:01.700Z,11.12
2023-05-12T03:12:30.460Z,11.14
2023-05-12T03:14:58.812Z,11.15
2023-05-12T03:17:27.374Z,11.18
2023-05-12T03:19:55.234Z,11.20
2023-05-12T03:22:22.711Z,11.20
2023-05-12T03:24:50.184Z,11.23
2023-05-12T03:27:17.923Z,11.24
2023-05-12T03:29:46.156Z,11.27
2023-05-12T03:32:13.984Z,11.28
2023-05-12T03:34:41.626Z,11.30
2023-05-12T03:37:09.667Z,11.33
2023-05-12T03:39:37.311Z,11.38
2023-05-12T03:42:05.249Z,11.43
2023-05-12T03:44:33.083Z,11.45
2023-05-12T03:47:00.680Z,11.48
2023-05-12T03:49:28.331Z,11.50
2023-05-12T03:51:55.862Z,11.52
2023-05-12T03:54:23.431Z,11.57
2023-05-12T03:56:52.665Z,11.62
2023-05-12T03:59:20.236Z,11.64
2023-05-12T04:01:47.868Z,11.67
2023-05-12T04:04:15.505Z,11.70
2023-05-12T04:06:43.460Z,11.73
2023-05-12T04:09:11.301Z,11.75
2023-05-12T04:11:38.994Z,11.78
2023-05-12T04:14:06.464Z,11.82
2023-05-12T04:16:35.606Z,11.86
2023-05-12T04:19:03.561Z,11.91
2023-05-12T04:21:31.546Z,11.95
2023-05-12T04:23:59.376Z,12.01
2023-05-12T04:26:30.327Z,12.04
2023-05-12T04:28:57.830Z,12.09
2023-05-12T04:31:25.706Z,12.16
2023-05-12T04:33:56.041Z,12.22
2023-05-12T04:36:24.964Z,12.27
2023-05-12T04:38:52.377Z,12.31
2023-05-12T04:41:19.890Z,12.37
2023-05-12T04:46:19.294Z,12.45
2023-05-12T04:48:46.764Z,12.50
2023-05-12T04:51:14.239Z,12.56
2023-05-12T04:53:41.813Z,12.59
2023-05-12T04:56:09.731Z,12.66
2023-05-12T04:58:39.199Z,12.72
2023-05-12T05:01:07.517Z,12.78
2023-05-12T05:03:35.219Z,12.83
2023-05-12T05:06:02.858Z,12.89
2023-05-12T05:08:30.619Z,12.96
2023-05-12T05:10:58.163Z,13.02
2023-05-12T05:13:28.327Z,13.07
2023-05-12T05:15:56.101Z,13.12
2023-05-12T05:18:25.611Z,13.16
2023-05-12T05:20:58.390Z,13.20
2023-05-12T05:23:27.255Z,13.25
2023-05-12T05:25:55.322Z,13.31
2023-05-12T05:28:22.924Z,13.34
2023-05-12T05:30:50.548Z,13.38
2023-05-12T05:33:18.202Z,13.43
2023-05-12T05:35:46.966Z,13.49
2023-05-12T05:38:14.818Z,13.54
2023-05-12T05:40:53.030Z,13.59
2023-05-12T05:43:22.462Z,13.64
2023-05-12T05:45:50.211Z,13.70
2023-05-12T05:48:18.915Z,13.74
2023-05-12T05:50:47.366Z,13.83
2023-05-12T05:53:15.487Z,13.90
2023-05-12T05:55:43.946Z,13.96
2023-05-12T05:58:12.635Z,14.03
2023-05-12T06:00:40.262Z,14.10
2023-05-12T06:03:07.900Z,14.19
2023-05-12T06:05:35.785Z,14.26
2023-05-12T06:08:05.198Z,14.34
2023-05-12T06:10:33.364Z,14.43
2023-05-12T06:13:01.140Z,14.51
2023-05-12T06:15:28.919Z,14.60
2023-05-12T06:17:56.393Z,14.67
2023-05-12T06:20:25.970Z,14.74
2023-05-12T06:22:53.569Z,14.79
2023-05-12T06:25:21.307Z,14.87
2023-05-12T06:27:53.562Z,14.96
2023-05-12T06:30:21.535Z,15.02
2023-05-12T06:32:49.207Z,15.09
2023-05-12T06:35:16.950Z,15.15
2023-05-12T06:37:49.711Z,15.23
2023-05-12T06:40:18.872Z,15.32
2023-05-12T06:42:46.421Z,15.37
2023-05-12T06:45:20.446Z,15.45
2023-05-12T06:47:48.565Z,15.53
2023-05-12T06:50:17.137Z,15.63
2023-05-12T06:52:44.773Z,15.71
2023-05-12T06:55:12.555Z,15.76
2023-05-12T06:57:41.538Z,15.84
2023-05-12T07:00:10.816Z,15.92
2023-05-12T07:02:38.457Z,15.98
2023-05-12T07:05:06.287Z,16.08
2023-05-12T07:07:33.898Z,16.14
2023-05-12T07:10:01.406Z,16.20
2023-05-12T07:12:29.180Z,16.26
2023-05-12T07:14:59.470Z,16.34
2023-05-12T07:17:28.944Z,16.42
2023-05-12T07:19:56.404Z,16.48
2023-05-12T07:22:24.024Z,16.55
2023-05-12T07:24:51.661Z,16.61
2023-05-12T07:27:19.243Z,16.69
2023-05-12T07:29:47.010Z,16.78
2023-05-12T07:32:14.508Z,16.86
2023-05-12T07:34:42.066Z,16.98
2023-05-12T07:37:09.565Z,17.08
2023-05-12T07:39:37.253Z,17.18
2023-05-12T07:42:05.270Z,17.24
2023-05-12T07:44:33.578Z,17.29
2023-05-12T07:47:01.497Z,17.37
2023-05-12T07:49:29.364Z,17.49
2023-05-12T07:51:56.833Z,17.60
2023-05-12T07:54:24.285Z,17.69
2023-05-12T07:56:51.833Z,17.72
2023-05-12T07:59:19.414Z,17.77
2023-05-12T08:01:46.956Z,17.85
2023-05-12T08:04:14.646Z,17.99
2023-05-12T08:06:42.595Z,18.10
2023-05-12T08:09:10.168Z,18.20
2023-05-12T08:11:38.109Z,18.25
2023-05-12T08:14:06.373Z,18.34
2023-05-12T08:16:33.954Z,18.43
2023-05-12T08:19:01.446Z,18.55
2023-05-12T08:21:29.132Z,18.64
2023-05-12T08:23:56.695Z,18.71
2023-05-12T08:26:25.047Z,18.80
2023-05-12T08:28:52.650Z,18.90
2023-05-12T08:31:21.017Z,18.89
2023-05-12T08:33:51.866Z,18.92
2023-05-12T08:36:21.757Z,18.98
2023-05-12T08:38:49.228Z,18.88
2023-05-12T08:41:18.025Z,18.86
2023-05-12T08:43:54.594Z,18.95
2023-05-12T08:46:22.114Z,19.04
2023-05-12T08:48:50.550Z,19.12
2023-05-12T08:51:18.446Z,18.93
2023-05-12T08:53:47.166Z,18.62
2023-05-12T08:58:45.693Z,18.76
2023-05-12T09:01:15.013Z,18.90
2023-05-12T09:03:42.826Z,19.02
2023-05-12T09:06:11.564Z,19.17
2023-05-12T09:08:39.309Z,19.32
2023-05-12T09:11:06.859Z,19.42
2023-05-12T09:14:00.351Z,19.56
2023-05-12T09:16:30.312Z,19.59
2023-05-12T09:18:59.154Z,19.61
2023-05-12T09:21:27.114Z,19.53
2023-05-12T09:23:58.994Z,19.60
2023-05-12T09:26:27.427Z,19.53
2023-05-12T09:28:56.273Z,19.49
2023-05-12T09:31:24.957Z,19.39
2023-05-12T09:33:52.705Z,19.40
2023-05-12T09:36:23.991Z,19.54
2023-05-12T09:39:09.043Z,19.59
2023-05-12T09:41:40.142Z,19.24
2023-05-12T09:44:08.676Z,19.18
2023-05-12T09:46:36.815Z,18.82
2023-05-12T09:49:04.505Z,18.64
2023-05-12T09:51:32.336Z,18.44
2023-05-12T09:54:00.858Z,18.08
2023-05-12T09:56:29.667Z,18.27
2023-05-12T09:58:57.311Z,18.64
2023-05-12T10:01:25.271Z,18.98
2023-05-12T10:03:55.515Z,19.13
2023-05-12T10:06:34.040Z,19.28
2023-05-12T10:09:16.003Z,19.31
2023-05-12T10:11:43.633Z,19.33
2023-05-12T10:14:11.473Z,19.45
2023-05-12T10:16:39.115Z,19.58
2023-05-12T10:19:07.127Z,19.76
2023-05-12T10:21:35.410Z,19.88
2023-05-12T10:24:03.899Z,19.92
2023-05-12T10:26:32.963Z,19.94
2023-05-12T10:29:00.614Z,19.95
2023-05-12T10:31:28.292Z,19.93
2023-05-12T10:33:59.346Z,19.98
2023-05-12T10:36:27.038Z,20.10
2023-05-12T10:38:54.974Z,20.22
2023-05-12T10:41:30.998Z,20.31
2023-05-12T10:43:58.574Z,20.45
2023-05-12T10:46:30.363Z,20.57
2023-05-12T10:49:10.713Z,20.62
2023-05-12T10:51:38.955Z,20.75
2023-05-12T10:54:07.777Z,20.79
2023-05-12T10:56:39.706Z,20.88
2023-05-12T10:59:29.552Z,20.98
2023-05-12T11:01:58.824Z,21.07
2023-05-12T11:04:43.842Z,21.02
2023-05-12T11:07:14.361Z,20.97
2023-05-12T11:09:56.574Z,20.80
2023-05-12T11:12:27.391Z,20.65
2023-05-12T11:14:55.435Z,20.48
2023-05-12T11:17:23.336Z,20.41
2023-05-12T11:19:52.728Z,20.36
2023-05-12T11:22:21.675Z,20.32
2023-05-12T11:24:49.519Z,20.36
2023-05-12T11:27:18.186Z,20.51
2023-05-12T11:29:51.791Z,20.59
2023-05-12T11:32:19.495Z,20.69
2023-05-12T11:34:47.822Z,20.88
2023-05-12T11:37:15.459Z,21.04
2023-05-12T11:39:43.125Z,21.12
2023-05-12T11:42:13.493Z,21.19
2023-05-12T11:44:49.192Z,21.19
2023-05-12T11:47:17.670Z,21.25
2023-05-12T11:49:49.270Z,21.34
2023-05-12T11:52:17.558Z,21.46
2023-05-12T11:55:06.150Z,21.45
2023-05-12T11:57:36.083Z,21.45
2023-05-12T12:00:08.016Z,21.40
2023-05-12T12:02:38.838Z,21.18
2023-05-12T12:05:18.208Z,21.05
2023-05-12T12:07:46.077Z,20.89
2023-05-12T12:10:14.960Z,20.79
2023-05-12T12:12:42.880Z,20.58
2023-05-12T12:15:11.124Z,20.45
2023-05-12T12:17:40.084Z,20.38
2023-05-12T12:20:09.242Z,20.33
2023-05-12T12:22:36.937Z,20.39
2023-05-12T12:25:04.958Z,20.50
2023-05-12T12:27:33.268Z,20.63
2023-05-12T12:30:01.092Z,20.74
2023-05-12T12:32:29.232Z,20.85
2023-05-12T12:34:59.737Z,20.99
2023-05-12T12:37:27.455Z,21.14
2023-05-12T12:39:55.620Z,21.26
2023-05-12T12:42:23.284Z,21.35
2023-05-12T12:44:51.530Z,21.43
2023-05-12T12:47:19.160Z,21.48
2023-05-12T12:49:46.730Z,21.42
2023-05-12T12:52:14.802Z,21.40
2023-05-12T12:54:42.357Z,21.47
2023-05-12T12:57:09.778Z,21.56
2023-05-12T12:59:37.396Z,21.65
2023-05-12T13:02:05.246Z,21.68
2023-05-12T13:04:32.846Z,21.72
2023-05-12T13:07:00.420Z,21.76
2023-05-12T13:09:28.102Z,21.74
2023-05-12T13:11:55.849Z,21.69
2023-05-12T13:14:24.395Z,21.68
2023-05-12T13:16:53.027Z,21.67
2023-05-12T13:19:21.704Z,21.73
2023-05-12T13:21:49.733Z,21.70
2023-05-12T13:24:17.192Z,21.66
2023-05-12T13:26:44.826Z,21.59
2023-05-12T13:29:12.756Z,21.57
2023-05-12T13:31:41.392Z,21.64
2023-05-12T13:34:08.937Z,21.65
2023-05-12T13:36:36.662Z,21.64
2023-05-12T13:39:04.198Z,21.54
2023-05-12T13:41:31.890Z,21.34
2023-05-12T13:43:59.698Z,21.29
2023-05-12T13:46:27.411Z,21.31
2023-05-12T13:48:54.977Z,21.33
2023-05-12T13:51:22.766Z,21.38
2023-05-12T13:53:50.725Z,21.46
2023-05-12T13:56:18.308Z,21.54
2023-05-12T13:58:45.773Z,21.60
2023-05-12T14:01:13.827Z,21.60
2023-05-12T14:03:42.772Z,21.59
2023-05-12T14:06:10.882Z,21.60
2023-05-12T14:08:40.155Z,21.67
2023-05-12T14:11:08.000Z,21.76
2023-05-12T14:13:35.986Z,21.83
2023-05-12T14:16:04.056Z,21.91
2023-05-12T14:18:32.615Z,21.95
2023-05-12T14:21:00.368Z,21.96
2023-05-12T14:23:27.885Z,21.92
2023-05-12T14:25:55.656Z,21.87
2023-05-12T14:28:23.657Z,21.84
2023-05-12T14:30:51.507Z,21.89
2023-05-12T14:33:19.007Z,21.95
2023-05-12T14:35:55.806Z,21.89
2023-05-12T14:38:31.229Z,21.87
2023-05-12T14:40:58.775Z,21.90
2023-05-12T14:43:26.638Z,21.94
2023-05-12T14:45:55.616Z,21.98
2023-05-12T14:48:23.729Z,22.02
2023-05-12T14:50:54.967Z,22.07
2023-05-12T14:53:22.629Z,22.11
2023-05-12T14:55:50.382Z,22.06
2023-05-12T14:58:17.942Z,22.01
2023-05-12T15:00:47.430Z,21.95
2023-05-12T15:03:15.744Z,21.90
2023-05-12T15:06:01.641Z,21.83
2023-05-12T15:08:31.150Z,21.71
2023-05-12T15:10:58.559Z,21.64
2023-05-12T15:13:26.012Z,21.62
2023-05-12T15:15:55.303Z,21.55
2023-05-12T15:18:24.663Z,21.48
2023-05-12T15:20:52.315Z,21.42
2023-05-12T15:23:19.760Z,21.33
2023-05-12T15:25:47.508Z,21.25
2023-05-12T15:28:14.984Z,21.15
2023-05-12T15:30:42.564Z,20.95
2023-05-12T15:33:10.448Z,20.78
2023-05-12T15:35:38.086Z,20.66
2023-05-12T15:38:05.522Z,20.59
2023-05-12T15:40:33.079Z,20.59
2023-05-12T15:43:00.526Z,20.62
2023-05-12T15:45:27.888Z,20.64
2023-05-12T15:47:56.373Z,20.64
2023-05-12T15:50:24.617Z,20.60
2023-05-12T15:52:52.299Z,20.57
2023-05-12T15:55:19.891Z,20.58
2023-05-12T15:57:47.545Z,20.58
2023-05-12T16:00:15.746Z,20.60
2023-05-12T16:02:44.216Z,20.57
2023-05-12T16:05:12.525Z,20.59
2023-05-12T16:07:40.646Z,20.56
2023-05-12T16:10:08.342Z,20.49
2023-05-12T16:12:35.796Z,20.44
2023-05-12T16:15:04.985Z,20.35
2023-05-12T16:17:33.576Z,20.27
2023-05-12T16:20:01.972Z,20.23
2023-05-12T16:22:29.617Z,20.18
2023-05-12T16:24:57.592Z,20.13
2023-05-12T16:27:25.503Z,20.06
2023-05-12T16:29:53.661Z,19.97
2023-05-12T16:32:21.111Z,19.89
2023-05-12T16:34:48.569Z,19.82
2023-05-12T16:37:16.007Z,19.75
2023-05-12T16:39:43.498Z,19.71
2023-05-12T16:42:10.824Z,19.66
2023-05-12T16:44:38.296Z,19.61
2023-05-12T16:47:05.817Z,19.54
2023-05-12T16:49:33.187Z,19.47
2023-05-12T16:52:00.848Z,19.38
2023-05-12T16:54:28.162Z,19.32
2023-05-12T16:56:56.523Z,19.25
2023-05-12T16:59:23.893Z,19.19
2023-05-12T17:01:51.360Z,19.12
2023-05-12T17:04:18.693Z,19.05
2023-05-12T17:06:47.049Z,18.97
2023-05-12T17:09:14.999Z,18.89
2023-05-12T17:11:42.501Z,18.80
2023-05-12T17:14:10.087Z,18.71
2023-05-12T17:16:37.562Z,18.62
2023-05-12T17:21:36.112Z,18.43
2023-05-12T17:24:03.751Z,18.37
2023-05-12T17:26:31.358Z,18.32
2023-05-12T17:28:58.816Z,18.24
2023-05-12T17:31:26.252Z,18.18
2023-05-12T17:33:54.021Z,18.11
2023-05-12T17:36:22.145Z,18.03
2023-05-12T17:38:50.125Z,17.97
2023-05-12T17:41:18.320Z,17.90
2023-05-12T17:43:45.948Z,17.84
2023-05-12T17:46:13.388Z,17.78
2023-05-12T17:48:40.816Z,17.71
2023-05-12T17:51:08.614Z,17.64
2023-05-12T17:53:35.999Z,17.56
2023-05-12T17:56:03.779Z,17.49
2023-05-12T17:58:31.189Z,17.43
2023-05-12T18:00:58.708Z,17.36
2023-05-12T18:03:26.848Z,17.29
2023-05-12T18:05:54.437Z,17.21
2023-05-12T18:08:22.204Z,17.15
2023-05-12T18:10:49.654Z,17.11
2023-05-12T18:13:17.484Z,17.07
2023-05-12T18:15:44.938Z,17.03
2023-05-12T18:18:14.429Z,17.00
2023-05-12T18:20:42.455Z,16.95
2023-05-12T18:23:09.968Z,16.91
2023-05-12T18:25:37.965Z,16.86
2023-05-12T18:28:06.785Z,16.82
2023-05-12T18:30:35.115Z,16.75
2023-05-12T18:33:02.633Z,16.69
2023-05-12T18:35:30.325Z,16.63
2023-05-12T18:37:57.788Z,16.57
2023-05-12T18:40:25.140Z,16.51
2023-05-12T18:42:52.663Z,16.46
2023-05-12T18:45:20.689Z,16.40
2023-05-12T18:47:48.358Z,16.34
2023-05-12T18:50:15.778Z,16.27
2023-05-12T18:52:43.917Z,16.23
2023-05-12T18:55:11.484Z,16.21
2023-05-12T18:57:39.589Z,16.16
2023-05-12T19:00:07.767Z,16.13
2023-05-12T19:02:36.558Z,16.10
2023-05-12T19:05:04.144Z,16.06
2023-05-12T19:07:31.994Z,15.99
2023-05-12T19:09:59.340Z,15.95
2023-05-12T19:12:26.824Z,15.89
2023-05-12T19:14:54.280Z,15.84
2023-05-12T19:17:22.153Z,15.77
2023-05-12T19:19:50.703Z,15.73
2023-05-12T19:22:18.289Z,15.69
2023-05-12T19:24:45.823Z,15.66
2023-05-12T19:27:13.251Z,15.62
2023-05-12T19:29:40.648Z,15.56
2023-05-12T19:32:08.207Z,15.54
2023-05-12T19:34:36.603Z,15.50
2023-05-12T19:37:04.205Z,15.46
2023-05-12T19:39:31.543Z,15.43
2023-05-12T19:41:58.837Z,15.39
2023-05-12T19:44:26.742Z,15.35
2023-05-12T19:46:55.006Z,15.32
2023-05-12T19:49:22.423Z,15.28
2023-05-12T19:51:51.264Z,15.25
2023-05-12T19:54:18.628Z,15.24
2023-05-12T19:56:45.977Z,15.20
2023-05-12T19:59:13.368Z,15.18
2023-05-12T20:01:41.569Z,15.15
2023-05-12T20:04:09.205Z,15.12
2023-05-12T20:06:36.667Z,15.07
2023-05-12T20:09:04.543Z,15.01
2023-05-12T20:11:31.924Z,14.96
2023-05-12T20:13:59.541Z,14.92
2023-05-12T20:16:27.128Z,14.89
2023-05-12T20:18:54.598Z,14.83
2023-05-12T20:21:21.990Z,14.79
2023-05-12T20:23:49.371Z,14.79
2023-05-12T20:26:16.710Z,14.76
2023-05-12T20:28:44.250Z,14.74
2023-05-12T20:31:11.749Z,14.73
2023-05-12T20:33:39.205Z,14.70
2023-05-12T20:36:06.856Z,14.67
2023-05-12T20:38:34.329Z,14.63
2023-05-12T20:41:05.837Z,14.60
2023-05-12T20:43:34.169Z,14.55
2023-05-12T20:46:05.699Z,14.54
2023-05-12T20:48:33.576Z,14.47
2023-05-12T20:51:10.433Z,14.42
2023-05-12T20:53:37.981Z,14.40
2023-05-12T20:56:08.222Z,14.38
2023-05-12T20:58:36.632Z,14.34
2023-05-12T21:01:04.402Z,14.34
2023-05-12T21:03:35.681Z,14.33
2023-05-12T21:06:05.160Z,14.31
2023-05-12T21:08:32.854Z,14.28
2023-05-12T21:11:00.310Z,14.27
2023-05-12T21:13:27.858Z,14.24
2023-05-12T21:15:55.352Z,14.22
2023-05-12T21:18:23.299Z,14.19
2023-05-12T21:20:51.142Z,14.15
2023-05-12T21:23:18.626Z,14.12
2023-05-12T21:25:46.143Z,14.10
2023-05-12T21:28:14.146Z,14.09
2023-05-12T21:30:41.771Z,14.09
2023-05-12T21:33:09.719Z,14.07
2023-05-12T21:35:37.445Z,14.06
2023-05-12T21:38:07.336Z,14.06
2023-05-12T21:40:34.886Z,14.06
2023-05-12T21:43:02.518Z,14.06
2023-05-12T21:45:31.374Z,14.04
2023-05-12T21:47:58.904Z,14.03
2023-05-12T21:50:26.469Z,13.99
2023-05-12T21:52:54.000Z,13.99
2023-05-12T21:55:21.673Z,13.97
2023-05-12T21:57:49.279Z,13.96
2023-05-12T22:00:20.045Z,13.95
2023-05-12T22:02:48.108Z,13.93
2023-05-12T22:05:15.633Z,13.91
2023-05-12T22:07:43.521Z,13.86
2023-05-12T22:10:10.992Z,13.85
2023-05-12T22:12:38.633Z,13.84
2023-05-12T22:15:06.818Z,13.79
2023-05-12T22:17:34.433Z,13.76
2023-05-12T22:20:02.032Z,13.73
2023-05-12T22:22:29.942Z,13.69
2023-05-12T22:24:57.502Z,13.67
2023-05-12T22:27:25.104Z,13.66
2023-05-12T22:29:52.718Z,13.65
2023-05-12T22:32:20.895Z,13.63
2023-05-12T22:34:48.328Z,13.63
2023-05-12T22:37:15.791Z,13.62
2023-05-12T22:39:43.218Z,13.61
2023-05-12T22:42:10.711Z,13.58
2023-05-12T22:44:38.690Z,13.53
2023-05-12T22:47:06.753Z,13.50
2023-05-12T22:49:34.243Z,13.48
2023-05-12T22:52:01.853Z,13.48
2023-05-12T22:54:29.705Z,13.46
2023-05-12T22:56:57.194Z,13.42
2023-05-12T22:59:24.705Z,13.40
2023-05-12T23:01:52.249Z,13.35
2023-05-12T23:04:20.089Z,13.34
2023-05-12T23:06:47.783Z,13.31
2023-05-12T23:09:15.940Z,13.28
2023-05-12T23:11:43.474Z,13.27
2023-05-12T23:14:11.576Z,13.25
2023-05-12T23:16:39.198Z,13.24
2023-05-12T23:19:06.688Z,13.24
2023-05-12T23:21:34.415Z,13.24
2023-05-12T23:24:01.773Z,13.23
2023-05-12T23:26:29.638Z,13.22
2023-05-12T23:28:57.424Z,13.20
2023-05-12T23:31:24.831Z,13.16
2023-05-12T23:33:52.312Z,13.12
2023-05-12T23:36:19.744Z,13.09
2023-05-12T23:38:50.757Z,13.03
2023-05-12T23:41:18.066Z,12.98
2023-05-12T23:43:45.505Z,12.96
2023-05-12T23:46:13.079Z,12.93
2023-05-12T23:48:40.787Z,12.92
2023-05-12T23:51:08.292Z,12.91
2023-05-12T23:53:35.941Z,12.89
2023-05-12T23:56:03.453Z,12.87
2023-05-12T23:58:31.524Z,12.83
